createdAt,value
2023-01-13T00:01:21.074Z,19.73
2023-01-13T00:04:29.728Z,19.85
2023-01-13T00:07:38.579Z,20.83
2023-01-13T00:10:53.676Z,20.97
2023-01-13T00:14:08.724Z,19.90
2023-01-13T00:17:16.730Z,21.27
2023-01-13T00:20:31.714Z,19.50
2023-01-13T00:23:41.691Z,21.35
2023-01-13T00:26:56.714Z,20.97
2023-01-13T00:30:05.697Z,20.50
2023-01-13T00:33:20.706Z,21.00
2023-01-13T00:36:22.793Z,20.60
2023-01-13T00:39:44.712Z,20.00
2023-01-13T00:42:53.322Z,19.37
2023-01-13T00:46:08.760Z,21.77
2023-01-13T00:49:16.712Z,20.17
2023-01-13T00:52:25.675Z,19.98
2023-01-13T00:55:36.754Z,19.92
2023-01-13T00:58:46.877Z,19.43
2023-01-13T01:01:54.818Z,19.37
2023-01-13T01:05:03.468Z,18.37
2023-01-13T01:08:12.721Z,18.92
2023-01-13T01:11:30.742Z,16.62
2023-01-13T01:14:32.710Z,17.23
2023-01-13T01:17:47.748Z,18.50
2023-01-13T01:20:51.983Z,17.40
2023-01-13T01:24:08.736Z,15.00
2023-01-13T01:27:10.557Z,15.88
2023-01-13T01:30:25.731Z,15.43
2023-01-13T01:33:28.187Z,15.80
2023-01-13T01:36:42.747Z,15.60
2023-01-13T01:39:57.751Z,15.77
2023-01-13T01:43:19.499Z,16.77
2023-01-13T01:46:27.801Z,15.77
2023-01-13T01:49:37.921Z,16.13
2023-01-13T01:52:50.784Z,15.40
2023-01-13T01:56:00.405Z,15.75
2023-01-13T01:59:09.741Z,14.87
2023-01-13T02:02:18.655Z,14.97
2023-01-13T02:05:29.750Z,14.57
2023-01-13T02:08:40.923Z,14.45
2023-01-13T02:11:49.747Z,14.15
2023-01-13T02:15:19.762Z,15.45
2023-01-13T02:18:41.561Z,15.80
2023-01-13T02:22:23.786Z,15.00
2023-01-13T02:26:00.745Z,15.93
2023-01-13T02:29:23.983Z,14.00
2023-01-13T02:32:51.772Z,13.82
2023-01-13T02:36:10.264Z,13.73
2023-01-13T02:39:25.804Z,13.67
2023-01-13T02:42:45.519Z,13.93
2023-01-13T02:46:13.763Z,15.00
2023-01-13T02:49:31.196Z,13.43
2023-01-13T02:52:45.781Z,13.50
2023-01-13T02:56:03.754Z,13.50
2023-01-13T02:59:06.775Z,14.15
2023-01-13T03:02:25.831Z,14.35
2023-01-13T03:05:31.503Z,13.98
2023-01-13T03:08:59.828Z,14.07
2023-01-13T03:12:22.769Z,13.60
2023-01-13T03:15:43.456Z,13.38
2023-01-13T03:19:07.773Z,13.05
2023-01-13T03:22:54.824Z,10.80
2023-01-13T03:26:15.262Z,12.80
2023-01-13T03:29:28.808Z,11.63
2023-01-13T03:32:49.811Z,11.40
2023-01-13T03:36:04.792Z,12.15
2023-01-13T03:39:34.837Z,11.55
2023-01-13T03:42:52.780Z,12.57
2023-01-13T03:46:09.005Z,11.47
2023-01-13T03:49:22.821Z,11.90
2023-01-13T03:52:36.322Z,11.10
2023-01-13T03:55:50.886Z,11.32
2023-01-13T03:59:09.819Z,11.57
2023-01-13T04:02:19.650Z,12.13
2023-01-13T04:05:35.808Z,12.07
2023-01-13T04:08:54.546Z,10.82
2023-01-13T04:12:12.797Z,12.80
2023-01-13T04:15:30.857Z,11.30
2023-01-13T04:18:36.437Z,11.73
2023-01-13T04:21:50.844Z,11.63
2023-01-13T04:24:52.729Z,12.00
2023-01-13T04:28:07.913Z,11.85
2023-01-13T04:31:10.232Z,12.77
2023-01-13T04:34:26.381Z,11.50
2023-01-13T04:37:36.804Z,11.80
2023-01-13T04:40:58.834Z,11.57
2023-01-13T04:44:06.823Z,11.75
2023-01-13T04:47:21.874Z,11.10
2023-01-13T04:50:31.414Z,11.30
2023-01-13T04:53:39.888Z,12.27
2023-01-13T04:56:48.511Z,12.18
2023-01-13T05:00:02.848Z,11.93
2023-01-13T05:03:11.845Z,11.80
2023-01-13T05:06:20.577Z,11.77
2023-01-13T05:09:29.867Z,12.23
2023-01-13T05:12:38.434Z,12.82
2023-01-13T05:15:47.893Z,11.75
2023-01-13T05:18:56.733Z,12.53
2023-01-13T05:22:05.856Z,11.47
2023-01-13T05:25:20.853Z,12.05
2023-01-13T05:28:28.861Z,13.25
2023-01-13T05:31:43.907Z,11.80
2023-01-13T05:34:45.757Z,12.47
2023-01-13T05:38:02.951Z,12.80
2023-01-13T05:41:17.890Z,12.75
2023-01-13T05:44:32.864Z,13.02
2023-01-13T05:47:40.856Z,12.75
2023-01-13T05:50:49.875Z,12.17
2023-01-13T05:53:58.857Z,12.00
2023-01-13T05:57:13.891Z,12.60
2023-01-13T06:00:16.667Z,13.82
2023-01-13T06:03:32.887Z,12.88
2023-01-13T06:06:34.663Z,13.77
2023-01-13T06:09:49.885Z,12.87
2023-01-13T06:12:52.068Z,12.05
2023-01-13T06:16:06.935Z,12.48
2023-01-13T06:19:09.139Z,11.68
2023-01-13T06:22:29.920Z,11.53
2023-01-13T06:25:50.898Z,12.50
2023-01-13T06:29:05.896Z,11.05
2023-01-13T06:32:22.866Z,10.32
2023-01-13T06:35:34.782Z,10.82
2023-01-13T06:38:55.917Z,11.77
2023-01-13T06:42:04.628Z,10.23
2023-01-13T06:45:18.884Z,10.80
2023-01-13T06:48:31.194Z,10.32
2023-01-13T06:51:39.934Z,11.75
2023-01-13T06:54:54.892Z,11.83
2023-01-13T06:58:00.719Z,11.40
2023-01-13T07:01:16.116Z,11.80
2023-01-13T07:04:24.916Z,11.38
2023-01-13T07:07:33.654Z,10.77
2023-01-13T07:10:43.912Z,10.87
2023-01-13T07:13:59.041Z,11.37
2023-01-13T07:17:00.908Z,11.52
2023-01-13T07:20:16.913Z,11.52
2023-01-13T07:23:18.869Z,11.77
2023-01-13T07:26:33.967Z,11.50
2023-01-13T07:29:36.139Z,12.20
2023-01-13T07:32:50.919Z,11.18
2023-01-13T07:36:01.697Z,13.02
2023-01-13T07:39:16.929Z,11.15
2023-01-13T07:42:32.959Z,11.47
2023-01-13T07:45:48.007Z,11.03
2023-01-13T07:48:57.080Z,11.32
2023-01-13T07:52:11.918Z,11.57
2023-01-13T07:55:15.873Z,11.02
2023-01-13T07:58:32.014Z,11.40
2023-01-13T08:01:41.125Z,10.27
2023-01-13T08:04:51.092Z,10.10
2023-01-13T08:08:08.719Z,9.80
2023-01-13T08:11:18.135Z,9.40
2023-01-13T08:14:40.035Z,9.38
2023-01-13T08:17:42.526Z,9.60
2023-01-13T08:21:02.359Z,10.50
2023-01-13T08:24:13.587Z,10.00
2023-01-13T08:27:28.027Z,10.50
2023-01-13T08:30:37.986Z,8.07
2023-01-13T08:33:54.043Z,7.70
2023-01-13T08:36:55.903Z,8.30
2023-01-13T08:40:12.026Z,8.02
2023-01-13T08:43:32.047Z,7.35
2023-01-13T08:46:39.998Z,7.97
2023-01-13T08:49:49.220Z,7.75
2023-01-13T08:52:57.963Z,7.17
2023-01-13T08:56:08.104Z,7.85
2023-01-13T08:59:26.961Z,8.07
2023-01-13T09:02:37.082Z,6.20
2023-01-13T09:05:46.032Z,6.80
2023-01-13T09:08:54.752Z,7.90
2023-01-13T09:12:02.999Z,8.32
2023-01-13T09:15:18.970Z,9.73
2023-01-13T09:18:21.004Z,9.50
2023-01-13T09:21:35.999Z,9.98
2023-01-13T09:24:37.989Z,9.63
2023-01-13T09:27:52.979Z,9.48
2023-01-13T09:30:55.308Z,10.50
2023-01-13T09:34:12.018Z,9.18
2023-01-13T09:37:14.099Z,8.70
2023-01-13T09:40:39.838Z,8.97
2023-01-13T09:43:54.990Z,8.70
2023-01-13T09:47:16.042Z,10.20
2023-01-13T09:50:35.031Z,10.63
2023-01-13T09:53:57.032Z,10.43
2023-01-13T09:57:06.069Z,10.17
2023-01-13T10:00:25.108Z,9.20
2023-01-13T10:03:37.046Z,10.40
2023-01-13T10:06:52.150Z,10.45
2023-01-13T10:10:04.022Z,11.32
2023-01-13T10:13:28.011Z,11.90
2023-01-13T10:16:40.024Z,9.77
2023-01-13T10:20:03.049Z,11.50
2023-01-13T10:23:33.405Z,10.65
2023-01-13T10:27:09.965Z,9.75
2023-01-13T10:30:31.987Z,14.40
2023-01-13T10:33:47.284Z,10.77
2023-01-13T10:37:08.021Z,10.32
2023-01-13T10:40:23.335Z,10.48
2023-01-13T10:43:39.015Z,22.58
2023-01-13T10:47:01.012Z,10.83
2023-01-13T10:50:35.085Z,10.80
2023-01-13T10:53:56.149Z,9.80
2023-01-13T10:57:17.887Z,12.00
2023-01-13T11:00:37.972Z,11.23
2023-01-13T11:03:46.738Z,12.33
2023-01-13T11:06:54.997Z,12.60
2023-01-13T11:10:32.023Z,11.50
2023-01-13T11:13:39.859Z,12.50
2023-01-13T11:17:00.032Z,11.40
2023-01-13T11:20:24.059Z,11.10
2023-01-13T11:23:46.073Z,12.35
2023-01-13T11:27:08.138Z,11.07
2023-01-13T11:30:22.925Z,10.63
2023-01-13T11:33:48.036Z,12.75
2023-01-13T11:37:00.348Z,12.60
2023-01-13T11:40:26.035Z,13.65
2023-01-13T11:43:49.089Z,12.35
2023-01-13T11:46:52.921Z,13.02
2023-01-13T11:50:09.040Z,13.10
2023-01-13T11:53:39.052Z,11.70
2023-01-13T11:57:24.100Z,12.57
2023-01-13T12:00:43.026Z,20.25
2023-01-13T12:04:11.562Z,13.88
2023-01-13T12:07:28.077Z,13.60
2023-01-13T12:10:46.449Z,13.00
2023-01-13T12:14:23.102Z,12.50
2023-01-13T12:18:05.032Z,14.02
2023-01-13T12:21:19.924Z,12.90
2023-01-13T12:24:47.070Z,12.25
2023-01-13T12:28:07.118Z,12.80
2023-01-13T12:31:18.183Z,13.65
2023-01-13T12:34:50.053Z,14.32
2023-01-13T12:38:14.060Z,13.38
2023-01-13T12:41:44.922Z,13.20
2023-01-13T12:48:52.063Z,14.52
2023-01-13T12:52:15.354Z,15.93
2023-01-13T12:55:34.069Z,16.17
2023-01-13T12:58:36.213Z,14.68
2023-01-13T13:01:54.169Z,15.47
2023-01-13T13:04:59.501Z,13.75
2023-01-13T13:08:30.059Z,13.95
2023-01-13T13:11:46.097Z,13.82
2023-01-13T13:15:03.114Z,15.45
2023-01-13T13:18:29.100Z,19.37
2023-01-13T13:22:04.129Z,14.82
2023-01-13T13:25:21.557Z,14.05
2023-01-13T13:28:31.059Z,14.02
2023-01-13T13:31:59.856Z,14.10
2023-01-13T13:35:29.084Z,14.90
2023-01-13T13:39:14.178Z,15.35
2023-01-13T13:42:27.069Z,14.50
2023-01-13T13:45:42.130Z,14.05
2023-01-13T13:48:59.144Z,13.88
2023-01-13T13:52:33.682Z,15.23
2023-01-13T13:55:43.076Z,13.82
2023-01-13T13:58:59.106Z,12.88
2023-01-13T14:02:10.278Z,14.68
2023-01-13T14:05:30.159Z,12.63
2023-01-13T14:08:36.862Z,12.87
2023-01-13T14:12:06.051Z,12.40
2023-01-13T14:15:24.456Z,13.77
2023-01-13T14:18:53.056Z,12.82
2023-01-13T14:22:02.378Z,12.82
2023-01-13T14:25:34.070Z,11.97
2023-01-13T14:28:45.070Z,13.13
2023-01-13T14:31:54.669Z,11.57
2023-01-13T14:35:03.058Z,12.37
2023-01-13T14:38:23.056Z,12.68
2023-01-13T14:41:54.030Z,11.87
2023-01-13T14:45:03.399Z,13.80
2023-01-13T14:48:16.314Z,12.68
2023-01-13T14:51:27.964Z,12.57
2023-01-13T14:54:53.037Z,13.20
2023-01-13T14:58:21.572Z,11.30
2023-01-13T15:01:40.241Z,13.60
2023-01-13T15:04:49.098Z,13.85
2023-01-13T15:08:08.077Z,14.43
2023-01-13T15:11:29.094Z,14.25
2023-01-13T15:14:34.078Z,14.37
2023-01-13T15:17:49.093Z,14.27
2023-01-13T15:20:51.446Z,14.57
2023-01-13T15:24:06.071Z,13.07
2023-01-13T15:27:17.655Z,14.50
2023-01-13T15:30:34.036Z,14.57
2023-01-13T15:33:35.823Z,12.95
2023-01-13T15:36:51.115Z,15.23
2023-01-13T15:39:59.092Z,13.45
2023-01-13T15:43:18.036Z,15.18
2023-01-13T15:46:27.079Z,13.67
2023-01-13T15:49:51.131Z,13.20
2023-01-13T15:52:52.971Z,13.15
2023-01-13T15:56:09.065Z,14.07
2023-01-13T15:59:25.064Z,13.80
2023-01-13T16:02:40.158Z,12.90
2023-01-13T16:05:42.740Z,13.30
2023-01-13T16:08:57.174Z,13.77
2023-01-13T16:12:06.067Z,14.43
2023-01-13T16:15:23.116Z,13.00
2023-01-13T16:18:24.953Z,13.67
2023-01-13T16:21:40.132Z,13.43
2023-01-13T16:24:42.368Z,13.68
2023-01-13T16:27:59.141Z,14.05
2023-01-13T16:31:15.983Z,13.55
2023-01-13T16:34:31.192Z,14.93
2023-01-13T16:37:33.057Z,13.77
2023-01-13T16:40:51.155Z,13.57
2023-01-13T16:44:00.404Z,13.80
2023-01-13T16:47:21.172Z,13.00
2023-01-13T16:50:41.657Z,13.40
2023-01-13T16:53:58.208Z,13.00
2023-01-13T16:57:13.183Z,14.48
2023-01-13T17:00:15.918Z,13.13
2023-01-13T17:03:30.210Z,13.35
2023-01-13T17:06:50.177Z,12.27
2023-01-13T17:10:05.279Z,12.18
2023-01-13T17:13:15.926Z,13.38
2023-01-13T17:16:31.222Z,12.15
2023-01-13T17:19:39.154Z,13.02
2023-01-13T17:22:57.746Z,13.17
2023-01-13T17:26:06.183Z,13.50
2023-01-13T17:29:24.207Z,13.62
2023-01-13T17:32:33.197Z,12.55
2023-01-13T17:35:48.177Z,13.73
2023-01-13T17:38:50.645Z,12.47
2023-01-13T17:42:12.295Z,13.30
2023-01-13T17:45:27.278Z,11.73
2023-01-13T17:48:36.387Z,12.27
2023-01-13T17:51:45.197Z,13.70
2023-01-13T17:55:00.223Z,13.27
2023-01-13T17:58:02.204Z,13.00
2023-01-13T18:01:22.305Z,12.43
2023-01-13T18:04:25.884Z,13.98
2023-01-13T18:07:40.230Z,13.43
2023-01-13T18:10:49.213Z,12.30
2023-01-13T18:14:05.217Z,12.20
2023-01-13T18:17:07.304Z,12.82
2023-01-13T18:20:25.213Z,12.32
2023-01-13T18:23:27.035Z,13.35
2023-01-13T18:26:43.204Z,12.93
2023-01-13T18:29:47.087Z,13.35
2023-01-13T18:33:02.249Z,11.98
2023-01-13T18:36:08.214Z,12.93
2023-01-13T18:39:23.268Z,13.20
2023-01-13T18:42:38.200Z,12.97
2023-01-13T18:45:50.655Z,13.02
2023-01-13T18:48:59.239Z,14.43
2023-01-13T18:52:08.092Z,13.32
2023-01-13T18:55:16.216Z,12.70
2023-01-13T18:58:25.068Z,13.10
2023-01-13T19:01:34.398Z,13.77
2023-01-13T19:04:46.081Z,13.07
2023-01-13T19:07:54.235Z,13.02
2023-01-13T19:11:13.265Z,13.62
2023-01-13T19:14:22.227Z,14.17
2023-01-13T19:17:40.326Z,13.23
2023-01-13T19:20:46.031Z,13.55
2023-01-13T19:24:03.278Z,14.02
2023-01-13T19:27:05.759Z,13.60
2023-01-13T19:30:21.239Z,13.40
2023-01-13T19:33:32.653Z,12.95
2023-01-13T19:36:41.255Z,14.23
2023-01-13T19:39:57.231Z,14.13
2023-01-13T19:43:06.501Z,13.85
2023-01-13T19:46:21.314Z,16.77
2023-01-13T19:49:23.705Z,15.32
2023-01-13T19:52:39.261Z,13.90
2023-01-13T19:55:46.346Z,15.02
2023-01-13T19:59:01.295Z,15.13
2023-01-13T20:02:16.171Z,14.43
2023-01-13T20:05:27.311Z,14.68
2023-01-13T20:08:36.564Z,13.75
2023-01-13T20:11:45.269Z,15.35
2023-01-13T20:15:00.411Z,16.02
2023-01-13T20:18:09.248Z,14.67
2023-01-13T20:21:20.397Z,15.32
2023-01-13T20:24:29.281Z,15.38
2023-01-13T20:27:37.903Z,16.12
2023-01-13T20:30:47.296Z,17.67
2023-01-13T20:33:56.057Z,16.27
2023-01-13T20:37:04.263Z,15.93
2023-01-13T20:40:15.401Z,15.00
2023-01-13T20:43:24.281Z,14.87
2023-01-13T20:46:39.292Z,16.02
2023-01-13T20:49:41.328Z,16.40
2023-01-13T20:52:56.287Z,17.42
2023-01-13T20:55:58.263Z,16.50
2023-01-13T20:59:14.311Z,15.93
2023-01-13T21:02:23.189Z,16.08
2023-01-13T21:05:31.292Z,16.30
2023-01-13T21:08:46.313Z,15.80
2023-01-13T21:11:50.056Z,16.02
2023-01-13T21:15:04.332Z,16.50
2023-01-13T21:18:06.271Z,17.52
2023-01-13T21:21:21.308Z,16.47
2023-01-13T21:24:23.923Z,17.58
2023-01-13T21:27:39.340Z,18.17
2023-01-13T21:30:49.307Z,17.92
2023-01-13T21:33:58.431Z,18.73
2023-01-13T21:37:06.320Z,17.47
2023-01-13T21:40:22.382Z,19.20
2023-01-13T21:43:37.299Z,18.27
2023-01-13T21:46:52.329Z,19.40
2023-01-13T21:49:54.295Z,19.55
2023-01-13T21:53:09.311Z,19.83
2023-01-13T21:56:11.220Z,19.23
2023-01-13T21:59:26.343Z,20.15
2023-01-13T22:02:28.359Z,17.00
2023-01-13T22:05:44.295Z,17.90
2023-01-13T22:08:46.364Z,16.93
2023-01-13T22:12:01.310Z,20.23
2023-01-13T22:15:10.312Z,19.17
2023-01-13T22:18:25.310Z,18.92
2023-01-13T22:21:34.331Z,19.08
2023-01-13T22:24:50.334Z,18.57
2023-01-13T22:27:52.131Z,20.10
2023-01-13T22:31:08.309Z,20.25
2023-01-13T22:34:12.186Z,20.95
2023-01-13T22:37:27.363Z,21.40
2023-01-13T22:40:29.861Z,20.67
2023-01-13T22:43:51.340Z,20.10
2023-01-13T22:46:59.347Z,18.60
2023-01-13T22:50:15.320Z,18.77
2023-01-13T22:53:18.661Z,18.60
2023-01-13T22:56:33.418Z,18.97
2023-01-13T22:59:42.367Z,19.08
2023-01-13T23:02:51.035Z,19.15
2023-01-13T23:06:03.384Z,19.37
2023-01-13T23:09:11.967Z,20.88
2023-01-13T23:12:20.365Z,19.60
2023-01-13T23:15:36.380Z,18.23
2023-01-13T23:18:38.729Z,19.40
2023-01-13T23:21:54.395Z,18.55
2023-01-13T23:24:56.210Z,19.62
2023-01-13T23:28:11.435Z,20.30
2023-01-13T23:31:16.481Z,19.92
2023-01-13T23:34:31.363Z,20.62
2023-01-13T23:37:39.380Z,20.10
2023-01-13T23:40:54.416Z,18.42
2023-01-13T23:44:02.712Z,19.97
2023-01-13T23:47:17.407Z,19.95
2023-01-13T23:50:26.339Z,20.60
2023-01-13T23:53:40.099Z,19.40
2023-01-13T23:56:49.413Z,24.40
2023-01-13T23:59:58.004Z,20.97
